Time;durP1;ratioP1;P1;durP2;ratioP2;P2;SDS_P1;SDS_P2;PMS_P1;PMS_P2;Temp;Humidity;BMP_temperature;BMP_pressure;BME280_temperature;BME280_humidity;BME280_pressure;Samples;Min_cycle;Max_cycle;Signal;HPM_P1;HPM_P2
2024/03/29 01:44:56;;;;;;;4.47;2.80;;;;;;;7.72;85.64;96348.03;4065260;29;20650;-83
2024/03/29 01:47:02;;;;;;;1.40;0.80;;;;;;;7.86;80.91;96351.06;4059353;29;20919;-83
2024/03/29 01:49:05;;;;;;;2.20;1.30;;;;;;;8.08;79.07;96345.69;4063672;29;20207;-82
2024/03/29 01:51:08;;;;;;;2.85;1.30;;;;;;;8.25;78.26;96352.88;4075644;29;20209;-83
2024/03/29 01:53:10;;;;;;;6.40;2.78;;;;;;;8.42;77.05;96332.28;4063493;29;20293;-83
2024/03/29 01:55:12;;;;;;;2.83;1.52;;;;;;;8.54;75.77;96328.59;4075774;29;20709;-83
2024/03/29 01:57:16;;;;;;;4.40;2.38;;;;;;;8.62;77.63;96331.31;4061996;29;20206;-83
2024/03/29 01:59:20;;;;;;;4.50;3.22;;;;;;;8.64;79.33;96326.81;4063899;29;20252;-83
2024/03/29 02:01:22;;;;;;;4.50;2.80;;;;;;;8.58;80.15;96341.16;4060390;29;20229;-82
2024/03/29 02:03:24;;;;;;;5.88;1.63;;;;;;;8.58;79.28;96327.34;4064725;29;20626;-83
2024/03/29 02:05:26;;;;;;;3.07;1.53;;;;;;;8.66;76.17;96320.53;4047342;29;20204;-83
2024/03/29 02:07:29;;;;;;;2.35;1.23;;;;;;;8.79;73.70;96318.47;4089320;28;20649;-82
2024/03/29 02:09:31;;;;;;;1.60;0.97;;;;;;;8.96;73.18;96323.00;4054619;29;20259;-82
2024/03/29 02:11:35;;;;;;;1.93;0.90;;;;;;;9.07;72.02;96328.84;4059918;29;21241;-82
2024/03/29 02:13:40;;;;;;;2.35;0.77;;;;;;;9.20;72.64;96333.75;4058562;29;20987;-82
2024/03/29 02:15:43;;;;;;;1.63;0.80;;;;;;;9.32;70.81;96324.81;4078855;29;20238;-82
2024/03/29 02:17:46;;;;;;;1.73;0.82;;;;;;;9.43;72.09;96320.28;4056147;29;20215;-83
2024/03/29 02:19:48;;;;;;;2.90;0.60;;;;;;;9.53;69.50;96318.47;4047326;29;20200;-82
2024/03/29 02:21:52;;;;;;;2.00;0.83;;;;;;;9.67;69.12;96331.03;4054952;29;20611;-82
2024/03/29 02:24:06;;;;;;;1.40;0.60;;;;;;;9.79;68.15;96330.72;4067003;29;20698;-82
2024/03/29 02:26:08;;;;;;;1.70;0.50;;;;;;;9.90;68.01;96336.53;4062486;29;20631;-82
2024/03/29 02:28:11;;;;;;;2.10;0.60;;;;;;;9.99;67.84;96334.91;4042196;29;20747;-82
2024/03/29 02:30:13;;;;;;;1.90;0.67;;;;;;;10.05;67.53;96337.72;4057408;29;20632;-82
2024/03/29 02:32:15;;;;;;;1.97;0.73;;;;;;;10.11;67.66;96324.13;4048529;29;20663;-83
2024/03/29 02:34:18;;;;;;;1.70;0.70;;;;;;;10.16;66.51;96324.50;4056937;29;20635;-81
2024/03/29 02:36:21;;;;;;;3.40;0.80;;;;;;;10.22;67.76;96320.50;4042597;29;21334;-83
2024/03/29 02:38:23;;;;;;;1.43;0.60;;;;;;;10.25;67.74;96326.25;4078002;28;20649;-82
2024/03/29 02:40:27;;;;;;;1.60;0.70;;;;;;;10.29;68.18;96313.78;4070512;29;20633;-83
2024/03/29 02:42:28;;;;;;;2.20;0.80;;;;;;;10.31;66.45;96330.06;4058502;29;20658;-82
2024/03/29 02:44:30;;;;;;;1.90;0.60;;;;;;;10.43;65.86;96340.13;4041452;29;20692;-82
2024/03/29 02:46:32;;;;;;;1.60;0.70;;;;;;;10.48;67.20;96330.91;4062750;29;21088;-82
2024/03/29 02:48:34;;;;;;;1.70;0.70;;;;;;;10.48;66.71;96317.88;4033761;29;20640;-81
2024/03/29 02:50:36;;;;;;;1.70;0.60;;;;;;;10.51;67.43;96322.00;4078001;29;20637;-82
2024/03/29 02:52:37;;;;;;;1.70;0.70;;;;;;;10.52;65.93;96319.22;4073407;29;20639;-82
2024/03/29 02:54:41;;;;;;;1.80;0.70;;;;;;;10.57;65.60;96326.59;4060935;29;21319;-82
2024/03/29 02:56:44;;;;;;;2.43;0.80;;;;;;;10.61;65.33;96314.91;4074597;29;20629;-83
2024/03/29 02:58:46;;;;;;;2.00;0.70;;;;;;;10.66;66.02;96313.50;4085547;28;20621;-83
2024/03/29 03:00:48;;;;;;;3.30;0.80;;;;;;;10.68;65.99;96316.78;4054511;29;21308;-82
2024/03/29 03:02:50;;;;;;;1.70;0.60;;;;;;;10.72;65.63;96331.16;4043434;29;20630;-83
2024/03/29 03:04:52;;;;;;;2.53;0.70;;;;;;;10.77;64.86;96320.28;4034152;29;20672;-83
2024/03/29 03:06:55;;;;;;;2.33;0.60;;;;;;;10.81;64.52;96340.69;4090109;28;20740;-82
2024/03/29 03:11:18;;;;;;;2.37;0.80;;;;;;;10.86;64.68;96320.19;4077856;29;20629;-83
2024/03/29 03:13:21;;;;;;;2.07;0.87;;;;;;;10.85;66.83;96321.16;4087309;28;20627;-83
2024/03/29 03:15:23;;;;;;;2.27;0.83;;;;;;;10.81;66.44;96323.25;4072217;29;21226;-83
2024/03/29 03:17:25;;;;;;;2.07;0.70;;;;;;;10.82;65.81;96322.28;4063828;29;21287;-83
2024/03/29 03:19:27;;;;;;;2.07;0.80;;;;;;;10.86;64.63;96318.41;4059460;29;20628;-83
2024/03/29 03:21:29;;;;;;;3.40;0.70;;;;;;;10.90;63.73;96324.97;4061650;29;21227;-83
2024/03/29 03:23:31;;;;;;;2.00;0.80;;;;;;;10.92;66.15;96319.59;4057673;29;20671;-83
2024/03/29 03:25:32;;;;;;;1.40;0.50;;;;;;;10.89;64.45;96319.91;4061264;29;20675;-83
2024/03/29 03:27:35;;;;;;;2.33;0.60;;;;;;;10.87;64.07;96314.84;4057204;29;20807;-82
2024/03/29 03:29:37;;;;;;;2.27;0.70;;;;;;;10.87;63.96;96309.63;4040621;29;20624;-83
2024/03/29 03:31:40;;;;;;;2.00;0.57;;;;;;;10.92;64.14;96319.59;4071612;29;20631;-82
2024/03/29 03:33:41;;;;;;;2.57;0.60;;;;;;;10.91;64.52;96313.53;4071554;29;20624;-83
2024/03/29 03:35:43;;;;;;;1.87;0.63;;;;;;;10.93;63.00;96313.41;4060965;29;20631;-83
2024/03/29 03:37:45;;;;;;;2.33;0.83;;;;;;;10.98;62.11;96314.59;4072869;29;20631;-83
2024/03/29 03:39:47;;;;;;;2.10;0.50;;;;;;;11.03;61.77;96325.38;4049074;29;20636;-83
2024/03/29 03:41:50;;;;;;;3.33;0.90;;;;;;;11.06;62.31;96335.53;4061239;29;20671;-83
2024/03/29 03:43:51;;;;;;;3.60;1.50;;;;;;;11.02;65.66;96335.97;4095835;28;20617;-83
2024/03/29 03:45:55;;;;;;;4.73;1.80;;;;;;;10.87;67.82;96340.91;4069673;29;20635;-82
2024/03/29 03:47:56;;;;;;;3.30;1.50;;;;;;;10.72;67.27;96338.16;4063736;29;20669;-83
2024/03/29 03:50:01;;;;;;;2.40;0.90;;;;;;;10.66;65.28;96343.94;4053917;29;20639;-82
2024/03/29 03:52:03;;;;;;;2.70;1.37;;;;;;;10.70;66.59;96353.94;4066059;29;21222;-83
2024/03/29 03:54:07;;;;;;;2.60;1.40;;;;;;;10.67;66.21;96353.41;4065124;29;20626;-82
2024/03/29 03:56:08;;;;;;;7.53;1.40;;;;;;;10.63;68.81;96362.50;4059412;29;21044;-83
2024/03/29 03:58:10;;;;;;;3.23;1.70;;;;;;;10.52;69.72;96354.88;4059603;29;20723;-83
2024/03/29 04:00:13;;;;;;;2.87;1.30;;;;;;;10.40;70.45;96372.53;4081613;29;20622;-83
2024/03/29 04:02:16;;;;;;;3.73;1.60;;;;;;;10.34;71.21;96395.72;4079407;29;21211;-82
2024/03/29 04:04:18;;;;;;;2.27;1.40;;;;;;;10.27;71.99;96405.09;4071116;29;20615;-83
2024/03/29 04:06:21;;;;;;;3.10;1.67;;;;;;;10.21;72.74;96410.88;4072060;29;20626;-83
2024/03/29 04:08:22;;;;;;;2.70;0.83;;;;;;;10.12;69.97;96403.13;4078670;29;20650;-82
2024/03/29 04:10:24;;;;;;;2.57;0.70;;;;;;;10.16;67.99;96374.00;4077827;29;20614;-82
2024/03/29 04:12:26;;;;;;;2.47;1.30;;;;;;;10.26;68.01;96381.78;4074241;29;20637;-82
2024/03/29 04:14:28;;;;;;;2.43;1.23;;;;;;;10.29;69.76;96399.75;4062573;29;20623;-83
2024/03/29 04:16:29;;;;;;;2.87;1.53;;;;;;;10.21;71.67;96384.84;4063421;29;20695;-83
2024/03/29 04:18:36;;;;;;;2.00;1.13;;;;;;;10.14;72.42;96381.16;4057791;29;21211;-83
2024/03/29 04:20:37;;;;;;;2.80;1.20;;;;;;;10.12;71.38;96351.03;4064673;29;20618;-83
2024/03/29 04:22:40;;;;;;;2.40;1.40;;;;;;;10.08;72.91;96347.06;4072743;29;21320;-82
2024/03/29 04:24:41;;;;;;;2.30;1.33;;;;;;;10.08;72.87;96347.06;4095305;28;20630;-83
2024/03/29 04:26:44;;;;;;;1.73;1.03;;;;;;;10.02;74.64;96345.84;4058853;29;21005;-82
2024/03/29 04:28:45;;;;;;;4.43;1.50;;;;;;;10.01;74.86;96344.22;4065602;29;20623;-83
2024/03/29 04:30:52;;;;;;;3.20;1.43;;;;;;;10.05;73.82;96321.31;4077672;29;20670;-82
2024/03/29 04:32:53;;;;;;;2.13;0.97;;;;;;;10.05;72.45;96319.50;4076327;29;20654;-83
2024/03/29 04:34:57;;;;;;;1.80;0.90;;;;;;;10.11;71.33;96308.50;4048546;29;20624;-83
2024/03/29 04:36:59;;;;;;;3.17;1.10;;;;;;;10.11;70.02;96300.69;4065598;29;20636;-83
2024/03/29 04:39:01;;;;;;;1.63;0.80;;;;;;;10.16;69.65;96293.25;4066208;29;20630;-83
2024/03/29 04:41:04;;;;;;;2.20;1.30;;;;;;;10.14;70.48;96304.81;4078944;29;20796;-82
2024/03/29 04:43:07;;;;;;;1.90;1.00;;;;;;;10.15;71.80;96307.25;4033842;29;20664;-82
2024/03/29 04:45:09;;;;;;;2.50;1.10;;;;;;;10.13;72.96;96301.38;4056111;29;20631;-83
2024/03/29 04:47:12;;;;;;;2.50;1.40;;;;;;;10.12;72.29;96319.78;4063943;29;20749;-83
2024/03/29 04:49:13;;;;;;;2.03;1.00;;;;;;;10.16;71.93;96314.09;4058240;29;20611;-83
2024/03/29 04:51:16;;;;;;;2.27;0.80;;;;;;;10.27;66.80;96302.66;4058270;29;20644;-83
2024/03/29 04:53:19;;;;;;;2.03;0.80;;;;;;;10.39;66.73;96329.19;4056893;29;20748;-83
2024/03/29 04:55:22;;;;;;;1.93;1.00;;;;;;;10.47;68.25;96352.72;4056943;29;20636;-82
2024/03/29 04:57:25;;;;;;;2.97;1.73;;;;;;;10.47;70.29;96367.53;4060653;29;20625;-83
2024/03/29 04:59:26;;;;;;;2.83;1.33;;;;;;;10.42;71.88;96394.03;4034668;29;20629;-84
2024/03/29 05:01:28;;;;;;;5.57;1.23;;;;;;;10.38;72.46;96408.31;4057763;29;20632;-83
2024/03/29 05:03:31;;;;;;;4.53;1.73;;;;;;;10.37;70.94;96395.44;4075933;29;20626;-83
2024/03/29 05:05:32;;;;;;;2.50;1.10;;;;;;;10.40;69.49;96384.72;4055659;29;20721;-83
2024/03/29 05:07:35;;;;;;;2.50;1.10;;;;;;;10.40;69.80;96387.31;4051794;29;21237;-83
2024/03/29 05:09:38;;;;;;;3.80;1.30;;;;;;;10.36;70.84;96362.53;4060497;29;20619;-83
2024/03/29 05:11:40;;;;;;;2.47;1.20;;;;;;;10.32;72.31;96358.56;4061348;29;20638;-83
2024/03/29 05:13:43;;;;;;;3.03;1.60;;;;;;;10.32;71.38;96349.94;4087426;28;20622;-82
2024/03/29 05:15:45;;;;;;;2.20;1.10;;;;;;;10.29;70.93;96338.03;4078447;28;20633;-82
2024/03/29 05:17:47;;;;;;;2.07;1.07;;;;;;;10.34;69.58;96307.97;4078714;29;20254;-83
2024/03/29 05:19:48;;;;;;;2.00;0.90;;;;;;;10.43;68.11;96299.28;4079208;29;20615;-82
2024/03/29 05:21:51;;;;;;;2.20;0.80;;;;;;;10.56;64.02;96275.44;4048980;29;20684;-82
2024/03/29 05:23:55;;;;;;;1.90;0.70;;;;;;;10.68;64.42;96276.84;4080624;29;21187;-83
2024/03/29 05:25:57;;;;;;;2.50;0.97;;;;;;;10.70;65.36;96267.09;4051820;29;20628;-83
2024/03/29 05:28:01;;;;;;;2.57;1.00;;;;;;;10.70;67.48;96262.69;4085074;28;21060;-83
2024/03/29 05:30:04;;;;;;;2.20;1.00;;;;;;;10.70;67.93;96270.50;4062279;29;20641;-83
2024/03/29 05:32:09;;;;;;;2.30;1.10;;;;;;;10.74;68.74;96273.66;4050379;29;20794;-83
2024/03/29 05:34:11;;;;;;;2.13;0.77;;;;;;;10.73;65.83;96274.63;4065617;29;20787;-83
2024/03/29 05:36:13;;;;;;;2.07;0.70;;;;;;;10.84;61.35;96268.19;4081927;29;20622;-82
2024/03/29 05:38:16;;;;;;;2.20;0.70;;;;;;;11.01;62.64;96285.59;4075322;29;20631;-83
2024/03/29 05:40:25;;;;;;;2.80;0.70;;;;;;;11.11;61.97;96290.72;4076490;29;20623;-83
2024/03/29 05:42:28;;;;;;;2.50;0.80;;;;;;;11.19;63.02;96282.97;4059524;29;20626;-83
2024/03/29 05:44:30;;;;;;;3.30;0.77;;;;;;;11.23;62.16;96295.56;4054205;29;21066;-82
2024/03/29 05:46:32;;;;;;;2.20;0.80;;;;;;;11.27;63.25;96306.50;4085304;28;21060;-82
2024/03/29 05:48:35;;;;;;;2.70;0.80;;;;;;;11.28;61.89;96301.94;4055581;29;20652;-80
2024/03/29 05:50:38;;;;;;;2.70;0.80;;;;;;;11.31;62.52;96293.81;4090084;28;20609;-82
2024/03/29 05:52:39;;;;;;;3.33;0.80;;;;;;;11.33;62.56;96296.25;4076838;28;20662;-83
2024/03/29 05:54:42;;;;;;;3.10;0.80;;;;;;;11.37;63.18;96295.00;4076014;29;21235;-83
2024/03/29 05:56:46;;;;;;;2.53;0.80;;;;;;;11.43;62.41;96281.34;4072507;29;20623;-84
2024/03/29 05:58:48;;;;;;;2.37;0.70;;;;;;;11.46;62.44;96286.25;4073117;29;20658;-83
2024/03/29 06:00:50;;;;;;;2.83;0.70;;;;;;;11.47;61.90;96301.78;4074831;29;20622;-84
2024/03/29 06:02:52;;;;;;;2.30;0.67;;;;;;;11.50;62.21;96298.03;4073893;29;20626;-81
2024/03/29 06:04:55;;;;;;;2.43;0.70;;;;;;;11.51;62.87;96310.13;4052276;29;20638;-82
2024/03/29 06:06:57;;;;;;;3.83;0.80;;;;;;;11.50;61.33;96309.31;4061346;29;20723;-82
2024/03/29 06:09:00;;;;;;;3.00;1.00;;;;;;;11.51;62.79;96299.69;4060811;29;20663;-82
2024/03/29 06:11:02;;;;;;;9.77;5.50;;;;;;;11.55;62.27;96298.41;4054765;29;20706;-82
2024/03/29 06:13:07;;;;;;;2.57;0.90;;;;;;;11.59;59.18;96284.06;4079004;29;20622;-82
2024/03/29 06:17:37;;;;;;;3.07;0.77;;;;;;;11.76;59.76;96310.13;4032547;29;20721;-82
2024/03/29 06:19:39;;;;;;;4.93;1.00;;;;;;;11.82;60.24;96318.13;4048924;29;21001;-83
2024/03/29 06:21:42;;;;;;;2.50;0.73;;;;;;;11.88;57.33;96314.09;4059350;29;21111;-82
2024/03/29 06:23:44;;;;;;;3.33;0.83;;;;;;;11.94;58.79;96327.34;4074754;29;20722;-82
2024/03/29 06:25:47;;;;;;;2.73;1.00;;;;;;;12.02;60.57;96321.34;4065320;29;20623;-83
2024/03/29 06:27:49;;;;;;;4.03;1.00;;;;;;;11.94;63.18;96335.19;4076551;29;21103;-82
2024/03/29 06:29:53;;;;;;;2.47;1.00;;;;;;;11.89;65.67;96327.00;4061156;29;21216;-83
2024/03/29 06:31:55;;;;;;;3.57;0.90;;;;;;;11.82;61.39;96322.56;4053740;29;20743;-82
2024/03/29 06:33:58;;;;;;;2.40;0.83;;;;;;;11.82;62.49;96320.75;4068946;29;20670;-82
2024/03/29 06:36:01;;;;;;;2.63;1.10;;;;;;;11.82;63.13;96314.72;4081264;29;20630;-83
2024/03/29 06:38:03;;;;;;;2.70;0.90;;;;;;;11.76;65.17;96316.16;4079052;29;20630;-82
2024/03/29 06:40:07;;;;;;;2.60;1.10;;;;;;;11.73;64.95;96320.88;4074649;29;20622;-83
2024/03/29 06:42:10;;;;;;;17.07;3.00;;;;;;;11.75;66.13;96319.72;4060142;29;20627;-83
2024/03/29 06:44:12;;;;;;;2.80;1.60;;;;;;;11.77;66.56;96322.19;4062350;29;20645;-83
2024/03/29 06:46:16;;;;;;;3.17;1.40;;;;;;;11.77;67.22;96336.06;4063414;29;20611;-83
2024/03/29 06:48:18;;;;;;;3.47;1.50;;;;;;;11.74;67.19;96335.53;4073348;29;20662;-82
2024/03/29 06:50:20;;;;;;;3.50;1.17;;;;;;;11.73;67.61;96349.59;4047336;29;20681;-82
2024/03/29 06:52:22;;;;;;;3.10;1.10;;;;;;;11.74;67.45;96347.78;4051803;29;20629;-82
2024/03/29 06:54:26;;;;;;;2.47;1.13;;;;;;;11.75;67.05;96345.84;4047728;29;20616;-82
2024/03/29 06:56:30;;;;;;;2.93;1.10;;;;;;;11.74;66.77;96340.78;4043295;29;20722;-82
2024/03/29 06:58:32;;;;;;;2.57;1.20;;;;;;;11.74;67.49;96342.56;4061831;29;20721;-81
2024/03/29 07:00:34;;;;;;;2.40;1.20;;;;;;;11.75;67.50;96336.38;4050099;29;20629;-81
2024/03/29 07:02:37;;;;;;;4.63;1.17;;;;;;;11.66;68.19;96329.47;4027982;29;21024;-81
2024/03/29 07:04:40;;;;;;;2.10;1.00;;;;;;;11.67;68.21;96331.13;4064624;29;20653;-82
2024/03/29 07:06:47;;;;;;;2.50;1.40;;;;;;;11.72;68.75;96334.06;4060728;29;20632;-81
2024/03/29 07:08:50;;;;;;;2.40;1.23;;;;;;;11.75;69.79;96328.53;4032198;29;21274;-82
2024/03/29 07:10:58;;;;;;;2.53;1.30;;;;;;;11.75;69.01;96333.78;4063320;29;20648;-81
2024/03/29 07:13:00;;;;;;;2.60;1.20;;;;;;;11.76;68.61;96323.16;4074977;29;20678;-82
2024/03/29 07:15:03;;;;;;;3.30;1.27;;;;;;;11.76;68.51;96331.81;4072729;29;20620;-81
2024/03/29 07:17:08;;;;;;;2.90;1.53;;;;;;;11.77;69.75;96333.47;4048784;29;21034;-81
2024/03/29 07:19:12;;;;;;;2.87;1.87;;;;;;;11.78;68.89;96316.78;4061795;29;20620;-81
2024/03/29 07:21:14;;;;;;;2.40;1.40;;;;;;;11.83;68.91;96322.41;4076063;29;20665;-81
2024/03/29 07:23:17;;;;;;;3.00;1.23;;;;;;;11.86;70.34;96322.09;4072978;28;20638;-80
2024/03/29 07:25:19;;;;;;;3.63;2.37;;;;;;;11.91;71.70;96325.03;4075296;29;20623;-81
2024/03/29 07:27:21;;;;;;;5.60;3.90;;;;;;;11.97;70.71;96329.66;4072076;29;21274;-81
2024/03/29 07:29:24;;;;;;;6.67;3.83;;;;;;;12.00;70.29;96320.69;4046640;29;20653;-80
2024/03/29 07:31:26;;;;;;;6.37;4.20;;;;;;;12.03;72.76;96315.97;4084117;28;21184;-79
2024/03/29 07:33:28;;;;;;;3.87;2.53;;;;;;;12.06;72.50;96314.84;4077460;29;20747;-79
2024/03/29 07:35:32;;;;;;;4.70;3.10;;;;;;;12.07;71.79;96313.84;4076489;29;20675;-81
2024/03/29 07:37:35;;;;;;;5.13;3.80;;;;;;;12.08;72.03;96316.28;4064437;28;20684;-82
2024/03/29 07:39:37;;;;;;;8.93;6.00;;;;;;;12.08;72.46;96329.34;4075170;29;21436;-80
2024/03/29 07:41:40;;;;;;;4.90;3.40;;;;;;;12.06;71.96;96344.38;4083022;29;20681;-80
2024/03/29 07:43:52;;;;;;;2.83;1.37;;;;;;;12.01;67.56;96345.81;4063100;29;21221;-81
2024/03/29 07:45:56;;;;;;;3.20;2.00;;;;;;;12.02;69.57;96363.13;4075803;29;20643;-81
2024/03/29 07:47:59;;;;;;;4.10;2.53;;;;;;;12.06;69.20;96361.88;4073231;29;20630;-82
2024/03/29 07:50:01;;;;;;;7.93;5.23;;;;;;;12.06;71.40;96364.47;4075513;29;20626;-81
2024/03/29 07:52:06;;;;;;;8.97;5.00;;;;;;;11.98;71.67;96360.03;4077739;29;20635;-83
2024/03/29 07:54:08;;;;;;;8.40;4.03;;;;;;;11.95;72.82;96367.34;4064434;29;20623;-82
2024/03/29 07:56:10;;;;;;;8.37;3.90;;;;;;;11.95;72.07;96381.25;4064354;29;20623;-81
2024/03/29 07:58:12;;;;;;;6.07;3.83;;;;;;;11.90;74.10;96388.69;4077129;29;20639;-81
2024/03/29 08:00:14;;;;;;;4.67;2.77;;;;;;;11.86;76.81;96387.38;4062602;29;20653;-83
2024/03/29 08:02:16;;;;;;;3.50;2.33;;;;;;;11.81;76.09;96394.84;4046834;29;20637;-82
2024/03/29 08:04:18;;;;;;;7.57;5.30;;;;;;;11.76;75.98;96394.50;4078872;29;20687;-82
2024/03/29 08:06:23;;;;;;;3.70;2.43;;;;;;;11.70;77.72;96389.06;4038495;29;21247;-82
2024/03/29 08:08:27;;;;;;;5.97;4.93;;;;;;;11.67;78.33;96417.28;4083311;28;21133;-82
2024/03/29 08:10:29;;;;;;;5.93;3.80;;;;;;;11.62;79.93;96435.19;4089547;28;21207;-82
2024/03/29 08:12:32;;;;;;;5.20;3.80;;;;;;;11.59;82.43;96443.31;4061330;29;20636;-83
2024/03/29 08:14:34;;;;;;;5.30;2.80;;;;;;;11.55;84.37;96442.00;4057901;28;20683;-80
2024/03/29 08:16:37;;;;;;;2.10;1.00;;;;;;;11.50;85.17;96439.84;4058088;29;20615;-80
2024/03/29 08:18:39;;;;;;;2.40;1.07;;;;;;;11.40;84.07;96449.50;4087345;28;21165;-81
2024/03/29 08:20:42;;;;;;;2.73;1.20;;;;;;;11.35;85.03;96461.34;4044534;29;20626;-82
2024/03/29 08:22:44;;;;;;;2.07;1.07;;;;;;;11.35;83.87;96469.19;4074348;28;20655;-82
2024/03/29 08:24:48;;;;;;;2.70;1.10;;;;;;;11.36;84.45;96468.22;4047625;29;20650;-82
2024/03/29 08:26:52;;;;;;;2.17;1.10;;;;;;;11.37;86.01;96468.06;4060871;29;20627;-82
2024/03/29 08:28:53;;;;;;;1.90;0.93;;;;;;;11.34;85.07;96472.78;4076422;28;20690;-81
2024/03/29 08:30:59;;;;;;;3.67;2.80;;;;;;;11.36;86.32;96486.50;4062520;29;20723;-81
2024/03/29 08:33:03;;;;;;;4.80;3.03;;;;;;;11.36;86.44;96483.88;4073094;29;20671;-81
2024/03/29 08:35:06;;;;;;;15.60;6.33;;;;;;;11.35;88.90;96495.28;4052574;29;21221;-81
2024/03/29 08:37:07;;;;;;;5.17;2.37;;;;;;;11.32;88.12;96492.97;4058331;29;20635;-82
2024/03/29 08:39:11;;;;;;;4.37;1.97;;;;;;;11.32;90.05;96506.00;4072849;29;20638;-82
2024/03/29 08:41:15;;;;;;;4.80;2.10;;;;;;;11.32;90.10;96513.84;4074861;29;20644;-82
2024/03/29 08:43:17;;;;;;;4.10;2.00;;;;;;;11.32;90.34;96508.63;4077572;29;20614;-82
2024/03/29 08:45:20;;;;;;;5.40;2.20;;;;;;;11.27;91.71;96518.69;4072565;29;20639;-81
2024/03/29 08:47:22;;;;;;;3.77;2.37;;;;;;;11.26;91.53;96530.13;4076989;29;20669;-82
2024/03/29 08:49:25;;;;;;;3.03;2.00;;;;;;;11.26;91.76;96544.94;4036092;29;20656;-82
2024/03/29 08:51:28;;;;;;;3.30;2.13;;;;;;;11.27;92.50;96546.59;4050096;29;20659;-82
2024/03/29 08:53:30;;;;;;;4.27;1.97;;;;;;;11.28;92.91;96549.06;4079310;29;20629;-82
2024/03/29 08:55:34;;;;;;;3.30;1.90;;;;;;;11.29;93.02;96543.69;4077547;29;21021;-81
2024/03/29 08:57:38;;;;;;;3.37;2.43;;;;;;;11.27;92.00;96548.25;4081287;29;20644;-82
2024/03/29 08:59:41;;;;;;;5.30;2.53;;;;;;;11.26;91.87;96540.56;4045016;29;21118;-82
2024/03/29 09:01:45;;;;;;;3.63;2.10;;;;;;;11.25;92.77;96548.53;4062382;29;20624;-81
2024/03/29 09:03:48;;;;;;;4.53;2.40;;;;;;;11.21;92.79;96553.19;4067291;29;20634;-82
2024/03/29 09:05:51;;;;;;;3.80;2.40;;;;;;;11.16;94.15;96536.38;4058583;29;20634;-82
2024/03/29 09:07:53;;;;;;;3.43;2.47;;;;;;;11.16;94.99;96542.38;4054992;29;20642;-81
2024/03/29 09:09:56;;;;;;;4.60;2.77;;;;;;;11.22;95.34;96548.81;4058174;29;20651;-82
2024/03/29 09:11:59;;;;;;;4.67;3.10;;;;;;;11.26;95.91;96540.56;4065101;29;21093;-82
2024/03/29 09:14:04;;;;;;;5.13;2.73;;;;;;;11.27;95.79;96553.47;4061962;29;20624;-82
2024/03/29 09:16:08;;;;;;;4.03;2.73;;;;;;;11.33;97.11;96549.41;4075925;29;20654;-82
2024/03/29 09:18:21;;;;;;;4.77;2.97;;;;;;;11.30;95.78;96552.31;4075733;29;20629;-82
2024/03/29 09:20:24;;;;;;;4.40;3.10;;;;;;;11.32;95.72;96553.00;4045378;29;21232;-81
2024/03/29 09:22:26;;;;;;;5.07;3.30;;;;;;;11.38;96.16;96539.34;4078612;29;20630;-81
2024/03/29 09:24:29;;;;;;;8.57;4.43;;;;;;;11.37;95.63;96533.31;4058877;29;20639;-81
2024/03/29 09:26:34;;;;;;;4.63;3.70;;;;;;;11.39;95.82;96527.94;4073609;28;20634;-81
2024/03/29 09:28:37;;;;;;;5.43;3.43;;;;;;;11.40;96.13;96519.97;4070221;29;20992;-81
2024/03/29 09:30:42;;;;;;;4.37;3.23;;;;;;;11.37;96.48;96501.19;4060222;29;20635;-82
2024/03/29 09:32:44;;;;;;;5.00;4.20;;;;;;;11.32;96.53;96487.75;4075664;29;20649;-81
2024/03/29 09:34:46;;;;;;;5.23;3.10;;;;;;;11.28;98.56;96481.19;4058104;29;21227;-81
2024/03/29 09:36:49;;;;;;;4.90;3.30;;;;;;;11.36;99.26;96486.50;4076841;29;21225;-81
2024/03/29 09:38:52;;;;;;;5.20;4.57;;;;;;;11.46;99.68;96489.84;4080253;29;20634;-81
2024/03/29 09:41:04;;;;;;;4.50;3.50;;;;;;;11.56;100.00;96511.50;4072523;29;20623;-83
2024/03/29 09:43:07;;;;;;;4.50;3.00;;;;;;;11.62;100.00;96523.97;4061421;29;20642;-81
2024/03/29 09:45:11;;;;;;;5.30;2.53;;;;;;;11.62;98.17;96527.41;4080215;28;20625;-81
2024/03/29 09:47:15;;;;;;;4.63;2.60;;;;;;;11.65;100.00;96531.50;4081200;29;21011;-82
2024/03/29 09:49:18;;;;;;;3.77;2.60;;;;;;;11.67;98.42;96521.75;4059471;29;20648;-80
2024/03/29 09:51:21;;;;;;;5.20;2.30;;;;;;;11.72;100.00;96529.94;4043928;29;20710;-82
2024/03/29 09:53:24;;;;;;;4.53;2.40;;;;;;;11.74;100.00;96538.44;4080975;28;20611;-80
2024/03/29 09:55:26;;;;;;;3.33;2.20;;;;;;;11.74;100.00;96528.81;4058607;29;20619;-81
2024/03/29 09:57:30;;;;;;;3.10;1.97;;;;;;;11.76;99.53;96517.25;4046550;29;20624;-82
2024/03/29 09:59:34;;;;;;;13.17;5.07;;;;;;;11.82;99.93;96502.78;4072883;29;20632;-81
2024/03/29 10:01:36;;;;;;;8.90;7.90;;;;;;;11.83;100.00;96479.13;4059954;29;20632;-80
2024/03/29 10:03:43;;;;;;;11.73;8.17;;;;;;;11.79;99.42;96462.09;4064765;28;20623;-80
2024/03/29 10:05:45;;;;;;;7.20;4.53;;;;;;;11.70;100.00;96446.53;4079384;29;20630;-80
2024/03/29 10:07:47;;;;;;;8.60;5.90;;;;;;;11.72;99.83;96449.78;4087571;28;20657;-81
2024/03/29 10:09:50;;;;;;;17.87;11.50;;;;;;;11.77;99.71;96461.44;4055334;29;20656;-81
2024/03/29 10:11:53;;;;;;;8.70;5.87;;;;;;;11.80;100.00;96474.19;4077395;28;20618;-81
2024/03/29 10:13:56;;;;;;;7.93;6.23;;;;;;;11.85;100.00;96465.91;4070345;29;20686;-81
2024/03/29 10:15:57;;;;;;;6.10;4.80;;;;;;;11.91;100.00;96455.66;4048180;29;21012;-81
2024/03/29 10:17:59;;;;;;;45.03;24.20;;;;;;;11.94;99.91;96460.56;4082568;29;20633;-81
2024/03/29 10:20:03;;;;;;;9.17;5.77;;;;;;;11.96;100.00;96463.03;4067566;29;20624;-82
2024/03/29 10:22:08;;;;;;;5.83;3.90;;;;;;;11.96;100.00;96479.53;4079560;29;20646;-81
2024/03/29 10:24:15;;;;;;;5.43;4.70;;;;;;;11.87;99.40;96475.22;4061480;29;20655;-81
2024/03/29 10:26:17;;;;;;;3.97;3.40;;;;;;;11.86;100.00;96477.97;4058148;29;20634;-81
2024/03/29 10:28:18;;;;;;;7.10;4.20;;;;;;;11.90;100.00;96463.66;4035098;29;20633;-81
2024/03/29 10:30:21;;;;;;;5.10;4.00;;;;;;;11.93;99.43;96468.56;4067228;29;20654;-81
2024/03/29 10:32:23;;;;;;;5.83;4.20;;;;;;;11.95;99.85;96475.28;4066152;29;20698;-81
2024/03/29 10:34:26;;;;;;;6.00;4.37;;;;;;;12.01;100.00;96461.63;4061850;29;20636;-81
2024/03/29 10:36:30;;;;;;;7.73;4.80;;;;;;;12.12;100.00;96466.59;4083048;29;20622;-81
2024/03/29 10:38:32;;;;;;;4.70;3.60;;;;;;;12.21;100.00;96470.03;4063464;29;20627;-81
2024/03/29 10:40:35;;;;;;;5.13;3.90;;;;;;;12.25;100.00;96474.81;4069629;29;20632;-81
2024/03/29 10:42:38;;;;;;;4.20;3.30;;;;;;;12.26;100.00;96471.25;4082313;29;20626;-81
2024/03/29 10:44:41;;;;;;;4.90;3.30;;;;;;;12.29;99.55;96466.50;4066391;29;21062;-81
2024/03/29 10:46:44;;;;;;;4.03;2.93;;;;;;;12.36;100.00;96451.84;4036640;29;20633;-81
2024/03/29 10:48:48;;;;;;;12.87;10.50;;;;;;;12.42;100.00;96476.56;4051354;29;21037;-81
2024/03/29 10:50:52;;;;;;;4.20;3.20;;;;;;;12.46;100.00;96477.88;4066095;28;21031;-81
2024/03/29 10:52:56;;;;;;;6.67;3.80;;;;;;;12.47;100.00;96459.41;4055603;29;20624;-81
2024/03/29 10:54:59;;;;;;;4.73;4.23;;;;;;;12.48;100.00;96462.84;4079962;29;20631;-81
2024/03/29 10:57:07;;;;;;;5.63;4.63;;;;;;;12.49;100.00;96470.53;4079764;29;20655;-81
2024/03/29 10:59:14;;;;;;;4.70;3.90;;;;;;;12.53;100.00;96484.13;4048446;29;21009;-82
2024/03/29 11:01:16;;;;;;;5.23;3.93;;;;;;;12.53;100.00;96477.09;4076217;29;20661;-81
2024/03/29 11:03:21;;;;;;;4.33;3.53;;;;;;;12.55;100.00;96472.53;4032602;29;20625;-82
2024/03/29 11:05:23;;;;;;;3.37;3.07;;;;;;;12.56;100.00;96474.19;4078733;29;20622;-82
2024/03/29 11:07:25;;;;;;;4.33;3.37;;;;;;;12.60;100.00;96472.06;4050474;29;20635;-81
2024/03/29 11:09:30;;;;;;;4.93;4.27;;;;;;;12.61;100.00;96477.13;4058056;29;20625;-81
2024/03/29 11:11:36;;;;;;;5.33;4.83;;;;;;;12.61;100.00;96476.31;4082935;28;20650;-82
2024/03/29 11:13:46;;;;;;;6.03;4.20;;;;;;;12.59;100.00;96483.50;4048693;28;20616;-81
2024/03/29 11:15:49;;;;;;;10.63;9.53;;;;;;;12.60;100.00;96482.53;4060486;29;20664;-82
2024/03/29 11:17:51;;;;;;;9.63;7.53;;;;;;;12.69;100.00;96480.63;4067168;29;20722;-81
2024/03/29 11:19:53;;;;;;;8.30;6.50;;;;;;;12.85;100.00;96478.13;4078962;29;20653;-81
2024/03/29 11:21:56;;;;;;;8.17;5.00;;;;;;;13.02;100.00;96471.09;4050761;29;20633;-82
2024/03/29 11:24:01;;;;;;;6.70;5.90;;;;;;;13.14;100.00;96468.06;4078259;29;20630;-81
2024/03/29 11:26:04;;;;;;;9.00;6.60;;;;;;;13.25;100.00;96459.91;4072135;29;20623;-80